Terminal Aerodrome Forecast
Issued by NWS

Home | Current Version | Previous Version | Text Only | Print | Product List | Glossary On
Versions: 1 2 3 4 5 6 7 8 9 10 11 12 13 14 15 16 17 18 19 20 21 22 23 24 25 26 27 28 29 30 31 32 33 34 35 36 37
000
FTUS45 KGJT 220815 AAA
TAFASE
TAF AMD
KASE 220815Z 2208/2306 17005KT P6SM -SHRA SCT015 BKN035 OVC050
      TEMPO 2208/2211 6SM -SHRA BR SCT007 BKN015
     FM221100 00000KT P6SM VCSH FEW020 SCT035 OVC050
     FM221400 VRB04KT P6SM SCT060 BKN100
     FM221900 24008KT P6SM VCTS SCT060 BKN100CB
     FM230200 19005KT P6SM VCSH BKN090=

USA.gov is the U.S. government's official web portal to all federal, state and local government web resources and services.